sensor_id;sensor_type;location;lat;lon;timestamp;P1;durP1;ratioP1;P2;durP2;ratioP2
51248;SDS011;39642;47.556;18.728;2023-03-01T00:01:08;14.95;;;6.45;;
51248;SDS011;39642;47.556;18.728;2023-03-01T00:03:36;13.30;;;6.30;;
51248;SDS011;39642;47.556;18.728;2023-03-01T00:06:02;13.98;;;6.10;;
51248;SDS011;39642;47.556;18.728;2023-03-01T00:08:29;14.32;;;6.50;;
51248;SDS011;39642;47.556;18.728;2023-03-01T00:11:00;13.43;;;5.93;;
51248;SDS011;39642;47.556;18.728;2023-03-01T00:13:46;15.00;;;6.65;;
51248;SDS011;39642;47.556;18.728;2023-03-01T00:16:15;13.93;;;6.25;;
51248;SDS011;39642;47.556;18.728;2023-03-01T00:18:43;14.32;;;6.37;;
51248;SDS011;39642;47.556;18.728;2023-03-01T00:21:09;12.75;;;5.70;;
51248;SDS011;39642;47.556;18.728;2023-03-01T00:23:36;13.30;;;5.85;;
51248;SDS011;39642;47.556;18.728;2023-03-01T00:26:05;13.55;;;6.00;;
51248;SDS011;39642;47.556;18.728;2023-03-01T00:28:32;13.98;;;6.10;;
51248;SDS011;39642;47.556;18.728;2023-03-01T00:31:05;13.13;;;5.87;;
51248;SDS011;39642;47.556;18.728;2023-03-01T00:33:32;13.25;;;6.05;;
51248;SDS011;39642;47.556;18.728;2023-03-01T00:35:58;13.82;;;5.87;;
51248;SDS011;39642;47.556;18.728;2023-03-01T00:38:24;14.50;;;6.10;;
51248;SDS011;39642;47.556;18.728;2023-03-01T00:40:51;12.60;;;5.97;;
51248;SDS011;39642;47.556;18.728;2023-03-01T00:43:17;14.05;;;6.05;;
51248;SDS011;39642;47.556;18.728;2023-03-01T00:45:43;15.60;;;5.78;;
51248;SDS011;39642;47.556;18.728;2023-03-01T00:48:09;14.13;;;6.15;;
51248;SDS011;39642;47.556;18.728;2023-03-01T00:50:35;14.35;;;5.70;;
51248;SDS011;39642;47.556;18.728;2023-03-01T00:53:00;13.90;;;6.12;;
51248;SDS011;39642;47.556;18.728;2023-03-01T00:55:26;13.95;;;6.45;;
51248;SDS011;39642;47.556;18.728;2023-03-01T00:57:52;12.80;;;5.87;;
51248;SDS011;39642;47.556;18.728;2023-03-01T01:00:19;12.37;;;5.80;;
51248;SDS011;39642;47.556;18.728;2023-03-01T01:02:45;14.07;;;6.12;;
51248;SDS011;39642;47.556;18.728;2023-03-01T01:05:12;14.43;;;6.05;;
51248;SDS011;39642;47.556;18.728;2023-03-01T01:07:38;12.63;;;5.70;;
51248;SDS011;39642;47.556;18.728;2023-03-01T01:10:04;12.93;;;6.00;;
51248;SDS011;39642;47.556;18.728;2023-03-01T01:12:30;13.50;;;5.82;;
51248;SDS011;39642;47.556;18.728;2023-03-01T01:14:57;13.77;;;5.93;;
51248;SDS011;39642;47.556;18.728;2023-03-01T01:17:23;13.70;;;5.62;;
51248;SDS011;39642;47.556;18.728;2023-03-01T01:19:49;13.38;;;6.05;;
51248;SDS011;39642;47.556;18.728;2023-03-01T01:22:15;13.23;;;5.93;;
51248;SDS011;39642;47.556;18.728;2023-03-01T01:24:41;14.05;;;6.20;;
51248;SDS011;39642;47.556;18.728;2023-03-01T01:27:06;12.65;;;5.43;;
51248;SDS011;39642;47.556;18.728;2023-03-01T01:29:32;12.93;;;5.45;;
51248;SDS011;39642;47.556;18.728;2023-03-01T01:31:58;12.95;;;5.75;;
51248;SDS011;39642;47.556;18.728;2023-03-01T01:34:24;12.80;;;6.00;;
51248;SDS011;39642;47.556;18.728;2023-03-01T01:36:51;14.90;;;6.20;;
51248;SDS011;39642;47.556;18.728;2023-03-01T01:39:20;13.90;;;6.12;;
51248;SDS011;39642;47.556;18.728;2023-03-01T01:41:46;13.13;;;5.70;;
51248;SDS011;39642;47.556;18.728;2023-03-01T01:44:17;13.68;;;5.53;;
51248;SDS011;39642;47.556;18.728;2023-03-01T01:46:53;12.60;;;5.68;;
51248;SDS011;39642;47.556;18.728;2023-03-01T01:49:34;13.57;;;5.95;;
51248;SDS011;39642;47.556;18.728;2023-03-01T01:57:18;12.65;;;5.45;;
51248;SDS011;39642;47.556;18.728;2023-03-01T01:59:49;12.85;;;5.70;;
51248;SDS011;39642;47.556;18.728;2023-03-01T02:02:18;13.38;;;6.05;;
51248;SDS011;39642;47.556;18.728;2023-03-01T02:04:44;12.90;;;5.25;;
51248;SDS011;39642;47.556;18.728;2023-03-01T02:07:17;13.48;;;5.80;;
51248;SDS011;39642;47.556;18.728;2023-03-01T02:09:47;12.93;;;5.40;;
51248;SDS011;39642;47.556;18.728;2023-03-01T02:12:19;12.45;;;5.57;;
51248;SDS011;39642;47.556;18.728;2023-03-01T02:14:48;13.02;;;5.30;;
51248;SDS011;39642;47.556;18.728;2023-03-01T02:17:14;11.57;;;5.15;;
51248;SDS011;39642;47.556;18.728;2023-03-01T02:22:32;12.45;;;5.28;;
51248;SDS011;39642;47.556;18.728;2023-03-01T02:30:12;12.60;;;5.60;;
51248;SDS011;39642;47.556;18.728;2023-03-01T02:32:41;11.75;;;5.12;;
51248;SDS011;39642;47.556;18.728;2023-03-01T02:35:12;11.65;;;5.10;;
51248;SDS011;39642;47.556;18.728;2023-03-01T02:37:40;13.55;;;5.10;;
51248;SDS011;39642;47.556;18.728;2023-03-01T02:40:08;11.23;;;4.85;;
51248;SDS011;39642;47.556;18.728;2023-03-01T02:42:57;12.80;;;5.20;;
51248;SDS011;39642;47.556;18.728;2023-03-01T02:45:25;12.02;;;5.00;;
51248;SDS011;39642;47.556;18.728;2023-03-01T02:47:55;11.98;;;4.82;;
51248;SDS011;39642;47.556;18.728;2023-03-01T02:55:38;11.48;;;4.97;;
51248;SDS011;39642;47.556;18.728;2023-03-01T02:58:04;12.05;;;5.07;;
51248;SDS011;39642;47.556;18.728;2023-03-01T03:00:33;11.50;;;4.70;;
51248;SDS011;39642;47.556;18.728;2023-03-01T03:03:05;13.43;;;5.50;;
51248;SDS011;39642;47.556;18.728;2023-03-01T03:05:32;11.15;;;4.80;;
51248;SDS011;39642;47.556;18.728;2023-03-01T03:07:59;12.52;;;4.97;;
51248;SDS011;39642;47.556;18.728;2023-03-01T03:10:28;12.37;;;5.20;;
51248;SDS011;39642;47.556;18.728;2023-03-01T03:12:58;12.55;;;5.45;;
51248;SDS011;39642;47.556;18.728;2023-03-01T03:15:26;11.77;;;5.10;;
51248;SDS011;39642;47.556;18.728;2023-03-01T03:17:53;11.60;;;4.78;;
51248;SDS011;39642;47.556;18.728;2023-03-01T03:20:21;10.82;;;4.50;;
51248;SDS011;39642;47.556;18.728;2023-03-01T03:22:50;11.63;;;5.00;;
51248;SDS011;39642;47.556;18.728;2023-03-01T03:25:18;11.73;;;5.05;;
51248;SDS011;39642;47.556;18.728;2023-03-01T03:27:46;11.60;;;4.68;;
51248;SDS011;39642;47.556;18.728;2023-03-01T03:30:17;11.18;;;4.85;;
51248;SDS011;39642;47.556;18.728;2023-03-01T03:32:45;12.27;;;4.65;;
51248;SDS011;39642;47.556;18.728;2023-03-01T03:35:21;11.68;;;4.85;;
51248;SDS011;39642;47.556;18.728;2023-03-01T03:37:59;11.18;;;4.90;;
51248;SDS011;39642;47.556;18.728;2023-03-01T03:40:36;12.63;;;5.00;;
51248;SDS011;39642;47.556;18.728;2023-03-01T03:43:07;11.57;;;4.90;;
51248;SDS011;39642;47.556;18.728;2023-03-01T03:45:39;12.25;;;4.80;;
51248;SDS011;39642;47.556;18.728;2023-03-01T03:48:06;10.90;;;4.53;;
51248;SDS011;39642;47.556;18.728;2023-03-01T03:50:34;11.10;;;4.60;;
51248;SDS011;39642;47.556;18.728;2023-03-01T03:53:01;12.35;;;5.05;;
51248;SDS011;39642;47.556;18.728;2023-03-01T03:55:29;12.50;;;5.12;;
51248;SDS011;39642;47.556;18.728;2023-03-01T03:57:59;11.32;;;4.85;;
51248;SDS011;39642;47.556;18.728;2023-03-01T04:03:03;12.25;;;4.75;;
51248;SDS011;39642;47.556;18.728;2023-03-01T04:05:29;10.52;;;4.43;;
51248;SDS011;39642;47.556;18.728;2023-03-01T04:07:55;11.02;;;4.65;;
51248;SDS011;39642;47.556;18.728;2023-03-01T04:10:32;11.35;;;4.85;;
51248;SDS011;39642;47.556;18.728;2023-03-01T04:13:00;11.27;;;4.60;;
51248;SDS011;39642;47.556;18.728;2023-03-01T04:15:26;11.15;;;4.50;;
51248;SDS011;39642;47.556;18.728;2023-03-01T04:17:53;11.35;;;4.90;;
51248;SDS011;39642;47.556;18.728;2023-03-01T04:20:24;12.32;;;4.97;;
51248;SDS011;39642;47.556;18.728;2023-03-01T04:25:18;11.05;;;4.55;;
51248;SDS011;39642;47.556;18.728;2023-03-01T04:27:45;11.32;;;4.53;;
51248;SDS011;39642;47.556;18.728;2023-03-01T04:30:11;10.80;;;4.35;;
51248;SDS011;39642;47.556;18.728;2023-03-01T04:32:37;11.23;;;4.82;;
51248;SDS011;39642;47.556;18.728;2023-03-01T04:35:03;11.75;;;4.57;;
51248;SDS011;39642;47.556;18.728;2023-03-01T04:37:29;12.10;;;4.60;;
51248;SDS011;39642;47.556;18.728;2023-03-01T04:39:55;11.00;;;4.50;;
51248;SDS011;39642;47.556;18.728;2023-03-01T04:42:21;10.90;;;4.32;;
51248;SDS011;39642;47.556;18.728;2023-03-01T04:44:47;12.63;;;4.75;;
51248;SDS011;39642;47.556;18.728;2023-03-01T04:47:13;11.48;;;4.80;;
51248;SDS011;39642;47.556;18.728;2023-03-01T04:49:39;10.82;;;4.57;;
51248;SDS011;39642;47.556;18.728;2023-03-01T04:52:05;10.85;;;4.43;;
51248;SDS011;39642;47.556;18.728;2023-03-01T04:54:31;11.38;;;4.40;;
51248;SDS011;39642;47.556;18.728;2023-03-01T04:56:59;10.85;;;4.70;;
51248;SDS011;39642;47.556;18.728;2023-03-01T04:59:26;10.80;;;4.50;;
51248;SDS011;39642;47.556;18.728;2023-03-01T05:01:52;10.48;;;4.47;;
51248;SDS011;39642;47.556;18.728;2023-03-01T05:04:22;10.88;;;4.40;;
51248;SDS011;39642;47.556;18.728;2023-03-01T05:06:48;10.35;;;4.50;;
51248;SDS011;39642;47.556;18.728;2023-03-01T05:09:15;10.30;;;4.32;;
51248;SDS011;39642;47.556;18.728;2023-03-01T05:11:41;11.18;;;4.43;;
51248;SDS011;39642;47.556;18.728;2023-03-01T05:14:07;11.20;;;4.30;;
51248;SDS011;39642;47.556;18.728;2023-03-01T05:16:34;11.32;;;4.45;;
51248;SDS011;39642;47.556;18.728;2023-03-01T05:19:01;10.82;;;4.30;;
51248;SDS011;39642;47.556;18.728;2023-03-01T05:21:39;10.27;;;4.30;;
51248;SDS011;39642;47.556;18.728;2023-03-01T05:24:25;11.95;;;4.30;;
51248;SDS011;39642;47.556;18.728;2023-03-01T05:26:51;9.52;;;4.15;;
51248;SDS011;39642;47.556;18.728;2023-03-01T05:29:20;10.38;;;4.20;;
51248;SDS011;39642;47.556;18.728;2023-03-01T05:31:57;11.80;;;4.15;;
51248;SDS011;39642;47.556;18.728;2023-03-01T05:34:31;12.57;;;4.60;;
51248;SDS011;39642;47.556;18.728;2023-03-01T05:36:58;10.43;;;4.00;;
51248;SDS011;39642;47.556;18.728;2023-03-01T05:39:25;11.00;;;4.30;;
51248;SDS011;39642;47.556;18.728;2023-03-01T05:41:53;10.13;;;4.20;;
51248;SDS011;39642;47.556;18.728;2023-03-01T05:44:23;11.12;;;4.37;;
51248;SDS011;39642;47.556;18.728;2023-03-01T05:46:50;12.73;;;4.32;;
51248;SDS011;39642;47.556;18.728;2023-03-01T05:49:16;10.52;;;4.05;;
51248;SDS011;39642;47.556;18.728;2023-03-01T05:51:42;11.35;;;3.75;;
51248;SDS011;39642;47.556;18.728;2023-03-01T05:54:12;9.35;;;3.90;;
51248;SDS011;39642;47.556;18.728;2023-03-01T05:56:38;12.07;;;4.20;;
51248;SDS011;39642;47.556;18.728;2023-03-01T05:59:04;11.85;;;4.53;;
51248;SDS011;39642;47.556;18.728;2023-03-01T06:01:31;10.93;;;4.22;;
51248;SDS011;39642;47.556;18.728;2023-03-01T06:03:57;10.25;;;4.20;;
51248;SDS011;39642;47.556;18.728;2023-03-01T06:06:23;10.25;;;3.75;;
51248;SDS011;39642;47.556;18.728;2023-03-01T06:08:50;15.30;;;4.47;;
51248;SDS011;39642;47.556;18.728;2023-03-01T06:11:17;15.48;;;4.60;;
51248;SDS011;39642;47.556;18.728;2023-03-01T06:13:43;21.77;;;5.32;;
51248;SDS011;39642;47.556;18.728;2023-03-01T06:16:10;16.42;;;4.62;;
51248;SDS011;39642;47.556;18.728;2023-03-01T06:18:36;14.45;;;4.78;;
51248;SDS011;39642;47.556;18.728;2023-03-01T06:21:03;20.23;;;4.97;;
51248;SDS011;39642;47.556;18.728;2023-03-01T06:23:30;21.27;;;5.00;;
51248;SDS011;39642;47.556;18.728;2023-03-01T06:25:56;23.55;;;5.20;;
51248;SDS011;39642;47.556;18.728;2023-03-01T06:28:22;26.33;;;5.80;;
51248;SDS011;39642;47.556;18.728;2023-03-01T06:30:49;21.25;;;4.62;;
51248;SDS011;39642;47.556;18.728;2023-03-01T06:33:15;25.70;;;5.47;;
51248;SDS011;39642;47.556;18.728;2023-03-01T06:39:04;19.52;;;4.95;;
